Time;durP1;ratioP1;P1;durP2;ratioP2;P2;SDS_P1;SDS_P2;PMS_P1;PMS_P2;Temp;Humidity;BMP_temperature;BMP_pressure;BME280_temperature;BME280_humidity;BME280_pressure;Samples;Min_cycle;Max_cycle;Signal;HPM_P1;HPM_P2
2023/01/29 00:02:25;;;;;;;;;;;;;;;;;;4978579;28;19914;-27
2023/01/29 00:04:51;;;;;;;;;;;;;;;;;;4978305;28;20325;-26
2023/01/29 00:07:17;;;;;;;;;;;;;;;;;;4978408;28;19917;-28
2023/01/29 00:09:43;;;;;;;;;;;;;;;;;;4978269;28;19922;-26
2023/01/29 00:12:09;;;;;;;;;;;;;;;;;;4977468;28;19997;-31
2023/01/29 00:14:35;;;;;;;;;;;;;;;;;;4978507;28;20012;-27
2023/01/29 00:17:01;;;;;;;;;;;;;;;;;;4978246;28;19945;-29
2023/01/29 00:19:27;;;;;;;;;;;;;;;;;;4978260;28;19922;-29
2023/01/29 00:21:53;;;;;;;;;;;;;;;;;;4978084;28;19929;-32
2023/01/29 00:24:19;;;;;;;;;;;;;;;;;;4978064;28;20370;-28
2023/01/29 00:26:45;;;;;;;;;;;;;;;;;;4978350;28;19914;-26
2023/01/29 00:29:11;;;;;;;;;;;;;;;;;;4977913;28;19922;-29
2023/01/29 00:31:37;;;;;;;;;;;;;;;;;;4977910;28;19921;-28
2023/01/29 00:34:03;;;;;;;;;;;;;;;;;;4977859;28;19914;-30
2023/01/29 00:36:29;;;;;;;;;;;;;;;;;;4977867;28;20326;-28
2023/01/29 00:38:57;;;;;;;;;;;;;;;;;;4977850;28;19953;-28
2023/01/29 00:46:53;;;;;;;;;;;;;;;;;;4978018;28;19972;-32
2023/01/29 00:49:19;;;;;;;;;;;;;;;;;;4977814;28;19918;-32
2023/01/29 00:52:22;;;;;;;;;;;;;;;;;;4976628;28;19918;-28
2023/01/29 00:54:31;;;;;;;;;;;;;;;;;;4977467;28;19942;-25
2023/01/29 00:56:57;;;;;;;;;;;;;;;;;;4976505;28;19914;-29
2023/01/29 00:59:23;;;;;;;;;;;;;;;;;;4977954;28;19916;-28
2023/01/29 01:04:34;;;;;;;;;;;;;;;;;;4977300;28;19973;-29
2023/01/29 01:07:00;;;;;;;;;;;;;;;;;;4977225;28;20353;-28
2023/01/29 01:12:10;;;;;;;;;;;;;;;;;;4977211;28;20008;-26
2023/01/29 01:14:36;;;;;;;;;;;;;;;;;;4977175;28;20353;-30
2023/01/29 01:17:02;;;;;;;;;;;;;;;;;;4977376;28;19913;-26
2023/01/29 01:19:28;;;;;;;;;;;;;;;;;;4977331;28;20076;-25
2023/01/29 01:21:54;;;;;;;;;;;;;;;;;;4977192;28;19914;-25
2023/01/29 01:24:20;;;;;;;;;;;;;;;;;;4976849;28;20372;-24
2023/01/29 01:26:46;;;;;;;;;;;;;;;;;;4976922;28;19946;-23
2023/01/29 01:29:12;;;;;;;;;;;;;;;;;;4977019;28;20412;-23
2023/01/29 01:31:38;;;;;;;;;;;;;;;;;;4976808;28;19920;-25
2023/01/29 01:34:05;;;;;;;;;;;;;;;;;;4976913;28;20253;-24
2023/01/29 01:36:31;;;;;;;;;;;;;;;;;;4976995;28;20381;-28
2023/01/29 01:38:57;;;;;;;;;;;;;;;;;;4976713;28;19914;-25
2023/01/29 01:41:23;;;;;;;;;;;;;;;;;;4976654;28;19921;-27
2023/01/29 01:43:49;;;;;;;;;;;;;;;;;;4976613;28;19917;-26
2023/01/29 01:46:15;;;;;;;;;;;;;;;;;;4976814;28;20408;-25
2023/01/29 01:48:41;;;;;;;;;;;;;;;;;;4976504;28;20333;-27
2023/01/29 01:51:07;;;;;;;;;;;;;;;;;;4975487;28;20369;-26
2023/01/29 01:53:33;;;;;;;;;;;;;;;;;;4976407;28;19910;-24
2023/01/29 01:56:00;;;;;;;;;;;;;;;;;;4976624;28;19989;-26
2023/01/29 01:58:26;;;;;;;;;;;;;;;;;;4976364;28;19910;-23
2023/01/29 02:00:52;;;;;;;;;;;;;;;;;;4976642;28;19914;-28
2023/01/29 02:11:32;;;;;;;;;;;;;;;;;;4976516;28;19968;-26
2023/01/29 02:13:58;;;;;;;;;;;;;;;;;;4976375;28;19915;-26
2023/01/29 02:16:24;;;;;;;;;;;;;;;;;;4976206;28;19917;-24
2023/01/29 02:18:50;;;;;;;;;;;;;;;;;;4976350;28;19914;-25
2023/01/29 02:21:23;;;;;;;;;;;;;;;;;;4976441;28;20336;-28
2023/01/29 02:23:49;;;;;;;;;;;;;;;;;;4975980;28;20269;-31
2023/01/29 02:26:16;;;;;;;;;;;;;;;;;;4976091;28;19910;-27
2023/01/29 02:28:41;;;;;;;;;;;;;;;;;;4975920;28;19925;-29
2023/01/29 02:31:08;;;;;;;;;;;;;;;;;;4975905;28;20293;-32
2023/01/29 02:33:34;;;;;;;;;;;;;;;;;;4975844;28;19914;-24
2023/01/29 02:36:00;;;;;;;;;;;;;;;;;;4981523;28;20013;-25
2023/01/29 02:38:26;;;;;;;;;;;;;;;;;;4982369;28;19964;-23
2023/01/29 02:40:52;;;;;;;;;;;;;;;;;;4982629;28;19914;-26
2023/01/29 02:43:18;;;;;;;;;;;;;;;;;;4982528;28;19988;-24
2023/01/29 02:45:44;;;;;;;;;;;;;;;;;;4982517;28;19918;-26
2023/01/29 02:48:10;;;;;;;;;;;;;;;;;;4982520;28;19914;-27
2023/01/29 02:50:36;;;;;;;;;;;;;;;;;;4982465;28;20337;-30
2023/01/29 02:53:02;;;;;;;;;;;;;;;;;;4982187;28;20081;-25
2023/01/29 02:55:28;;;;;;;;;;;;;;;;;;4982460;28;20353;-31
2023/01/29 02:57:54;;;;;;;;;;;;;;;;;;4982265;28;19922;-26
2023/01/29 03:00:20;;;;;;;;;;;;;;;;;;4982436;28;19921;-23
2023/01/29 03:02:46;;;;;;;;;;;;;;;;;;4982207;28;20368;-26
2023/01/29 03:05:13;;;;;;;;;;;;;;;;;;4982038;28;19922;-26
2023/01/29 03:07:43;;;;;;;;;;;;;;;;;;4982401;28;19921;-26
2023/01/29 03:10:09;;;;;;;;;;;;;;;;;;4982264;28;20257;-26
2023/01/29 03:12:35;;;;;;;;;;;;;;;;;;4982190;28;19914;-25
2023/01/29 03:15:10;;;;;;;;;;;;;;;;;;4982067;28;19973;-27
2023/01/29 03:17:36;;;;;;;;;;;;;;;;;;4981986;28;19953;-26
2023/01/29 03:20:02;;;;;;;;;;;;;;;;;;4981989;28;19910;-26
2023/01/29 03:22:28;;;;;;;;;;;;;;;;;;4981924;28;19914;-24
2023/01/29 03:33:08;;;;;;;;;;;;;;;;;;4981831;28;19974;-25
2023/01/29 03:35:35;;;;;;;;;;;;;;;;;;4981865;28;20261;-26
2023/01/29 03:38:01;;;;;;;;;;;;;;;;;;4981852;28;20004;-24
2023/01/29 03:40:27;;;;;;;;;;;;;;;;;;4982095;28;20254;-25
2023/01/29 03:42:53;;;;;;;;;;;;;;;;;;4981735;28;19914;-26
2023/01/29 03:45:20;;;;;;;;;;;;;;;;;;4982067;28;19910;-27
2023/01/29 03:47:46;;;;;;;;;;;;;;;;;;4977631;28;19973;-26
2023/01/29 03:50:12;;;;;;;;;;;;;;;;;;4978690;28;19953;-24
2023/01/29 03:52:38;;;;;;;;;;;;;;;;;;4978604;28;19914;-23
2023/01/29 03:55:05;;;;;;;;;;;;;;;;;;4978691;28;19910;-27
2023/01/29 03:57:31;;;;;;;;;;;;;;;;;;4978608;28;19914;-24
2023/01/29 03:59:57;;;;;;;;;;;;;;;;;;4978563;28;19914;-25
2023/01/29 04:02:26;;;;;;;;;;;;;;;;;;4978467;28;20334;-27
2023/01/29 04:04:52;;;;;;;;;;;;;;;;;;4978216;28;20361;-27
2023/01/29 04:07:22;;;;;;;;;;;;;;;;;;4978497;28;19924;-28
2023/01/29 04:09:48;;;;;;;;;;;;;;;;;;4979300;28;20289;-27
2023/01/29 04:12:14;;;;;;;;;;;;;;;;;;4978283;28;19917;-28
2023/01/29 04:14:40;;;;;;;;;;;;;;;;;;4978508;28;19921;-25
2023/01/29 04:17:06;;;;;;;;;;;;;;;;;;4978322;28;19961;-23
2023/01/29 04:19:32;;;;;;;;;;;;;;;;;;4978151;28;19969;-31
2023/01/29 04:21:58;;;;;;;;;;;;;;;;;;4978387;28;19922;-23
2023/01/29 04:24:24;;;;;;;;;;;;;;;;;;4978075;28;19941;-25
2023/01/29 04:26:50;;;;;;;;;;;;;;;;;;4978027;28;19910;-30
2023/01/29 04:29:16;;;;;;;;;;;;;;;;;;4977878;28;19928;-25
2023/01/29 04:31:42;;;;;;;;;;;;;;;;;;4978217;28;20000;-26
2023/01/29 04:34:08;;;;;;;;;;;;;;;;;;4978133;28;20233;-25
2023/01/29 04:36:34;;;;;;;;;;;;;;;;;;4977844;28;20362;-30
2023/01/29 04:39:00;;;;;;;;;;;;;;;;;;4977826;28;19910;-22
2023/01/29 04:41:26;;;;;;;;;;;;;;;;;;4977824;28;19922;-25
2023/01/29 04:43:52;;;;;;;;;;;;;;;;;;4977660;28;19914;-23
2023/01/29 04:46:18;;;;;;;;;;;;;;;;;;4977694;28;19925;-25
2023/01/29 04:48:44;;;;;;;;;;;;;;;;;;4977566;28;19918;-27
2023/01/29 04:51:10;;;;;;;;;;;;;;;;;;4977551;28;19914;-27
2023/01/29 04:53:36;;;;;;;;;;;;;;;;;;4976533;28;20012;-27
2023/01/29 04:56:02;;;;;;;;;;;;;;;;;;4977534;28;20370;-24
2023/01/29 04:58:28;;;;;;;;;;;;;;;;;;4977420;28;19910;-27
2023/01/29 05:00:54;;;;;;;;;;;;;;;;;;4977453;28;19914;-27
2023/01/29 05:03:20;;;;;;;;;;;;;;;;;;4977101;28;19918;-27
2023/01/29 05:05:46;;;;;;;;;;;;;;;;;;4977329;28;19921;-24
2023/01/29 05:08:12;;;;;;;;;;;;;;;;;;4977207;28;19918;-26
2023/01/29 05:10:38;;;;;;;;;;;;;;;;;;4977509;28;19914;-25
2023/01/29 05:13:04;;;;;;;;;;;;;;;;;;4977415;28;19914;-23
2023/01/29 05:15:30;;;;;;;;;;;;;;;;;;4977121;28;20227;-25
2023/01/29 05:18:00;;;;;;;;;;;;;;;;;;4977089;28;19917;-23
2023/01/29 05:20:26;;;;;;;;;;;;;;;;;;4976997;28;19915;-29
2023/01/29 05:22:52;;;;;;;;;;;;;;;;;;4977191;28;19964;-26
2023/01/29 05:25:18;;;;;;;;;;;;;;;;;;4976972;28;20250;-25
2023/01/29 05:28:02;;;;;;;;;;;;;;;;;;4976918;28;19918;-27
2023/01/29 05:30:28;;;;;;;;;;;;;;;;;;4977123;28;19918;-31
2023/01/29 05:32:54;;;;;;;;;;;;;;;;;;4975752;28;20366;-29
2023/01/29 05:35:20;;;;;;;;;;;;;;;;;;4976732;28;19926;-28
2023/01/29 05:37:46;;;;;;;;;;;;;;;;;;4976697;28;19915;-24
2023/01/29 05:40:12;;;;;;;;;;;;;;;;;;4976936;28;19949;-26
2023/01/29 05:42:38;;;;;;;;;;;;;;;;;;4976597;28;19914;-26
2023/01/29 05:45:04;;;;;;;;;;;;;;;;;;4976634;28;20415;-23
2023/01/29 05:47:30;;;;;;;;;;;;;;;;;;4975564;28;19911;-26
2023/01/29 05:49:56;;;;;;;;;;;;;;;;;;4976477;28;19918;-27
2023/01/29 05:52:22;;;;;;;;;;;;;;;;;;4976452;28;19914;-27
2023/01/29 05:54:48;;;;;;;;;;;;;;;;;;4976502;28;19910;-27
2023/01/29 05:57:14;;;;;;;;;;;;;;;;;;4976512;28;19924;-27
2023/01/29 05:59:40;;;;;;;;;;;;;;;;;;4976662;28;20298;-23
2023/01/29 06:02:06;;;;;;;;;;;;;;;;;;4976262;28;19918;-27
2023/01/29 06:04:32;;;;;;;;;;;;;;;;;;4976119;28;20017;-25
2023/01/29 06:06:58;;;;;;;;;;;;;;;;;;4976282;28;19914;-27
2023/01/29 06:09:25;;;;;;;;;;;;;;;;;;4975567;28;20246;-32
2023/01/29 06:11:51;;;;;;;;;;;;;;;;;;4976427;28;19925;-26
2023/01/29 06:14:17;;;;;;;;;;;;;;;;;;4976437;28;19921;-27
2023/01/29 06:16:43;;;;;;;;;;;;;;;;;;4976443;28;19969;-23
2023/01/29 06:19:09;;;;;;;;;;;;;;;;;;4976128;28;19914;-27
2023/01/29 06:21:35;;;;;;;;;;;;;;;;;;4976127;28;19937;-29
2023/01/29 06:24:01;;;;;;;;;;;;;;;;;;4976020;28;19965;-28
2023/01/29 06:26:27;;;;;;;;;;;;;;;;;;4976050;28;19997;-27
2023/01/29 06:28:53;;;;;;;;;;;;;;;;;;4976154;28;20013;-28
2023/01/29 06:31:19;;;;;;;;;;;;;;;;;;4975955;28;19917;-26
2023/01/29 06:33:44;;;;;;;;;;;;;;;;;;4975922;28;19918;-23
2023/01/29 06:36:10;;;;;;;;;;;;;;;;;;4976262;28;19910;-22
2023/01/29 06:38:36;;;;;;;;;;;;;;;;;;4975878;28;20012;-26
2023/01/29 06:41:02;;;;;;;;;;;;;;;;;;4975918;28;20265;-30
2023/01/29 06:43:28;;;;;;;;;;;;;;;;;;4975822;28;19921;-25
2023/01/29 06:45:54;;;;;;;;;;;;;;;;;;4976653;28;20106;-25
2023/01/29 06:48:20;;;;;;;;;;;;;;;;;;4976005;28;20316;-26
2023/01/29 06:50:48;;;;;;;;;;;;;;;;;;4976025;28;19997;-28
2023/01/29 06:53:14;;;;;;;;;;;;;;;;;;4975780;28;19918;-24
2023/01/29 06:55:40;;;;;;;;;;;;;;;;;;4974885;28;20274;-30
2023/01/29 06:58:06;;;;;;;;;;;;;;;;;;4975784;28;20257;-25
2023/01/29 07:00:32;;;;;;;;;;;;;;;;;;4976031;28;19921;-26
2023/01/29 07:02:58;;;;;;;;;;;;;;;;;;4975424;28;20000;-27
2023/01/29 07:05:24;;;;;;;;;;;;;;;;;;4975916;28;19997;-25
2023/01/29 07:07:50;;;;;;;;;;;;;;;;;;4975662;28;19957;-22
2023/01/29 07:10:16;;;;;;;;;;;;;;;;;;4975857;28;19922;-22
2023/01/29 07:12:42;;;;;;;;;;;;;;;;;;4975571;28;19914;-29
2023/01/29 07:15:08;;;;;;;;;;;;;;;;;;4975884;28;19921;-22
2023/01/29 07:17:34;;;;;;;;;;;;;;;;;;4974638;28;19910;-23
2023/01/29 07:20:00;;;;;;;;;;;;;;;;;;4975780;28;19928;-28
2023/01/29 07:22:26;;;;;;;;;;;;;;;;;;4978634;28;19914;-29
2023/01/29 07:24:52;;;;;;;;;;;;;;;;;;4979114;28;19915;-27
2023/01/29 07:27:18;;;;;;;;;;;;;;;;;;4979417;28;19968;-23
2023/01/29 07:29:44;;;;;;;;;;;;;;;;;;4979280;28;19922;-26
2023/01/29 07:32:10;;;;;;;;;;;;;;;;;;4979285;28;19968;-24
2023/01/29 07:34:36;;;;;;;;;;;;;;;;;;4979004;28;19925;-28
2023/01/29 07:37:02;;;;;;;;;;;;;;;;;;4979270;28;20337;-27
2023/01/29 07:39:28;;;;;;;;;;;;;;;;;;4979242;28;19910;-23
2023/01/29 07:41:53;;;;;;;;;;;;;;;;;;4978855;28;20005;-24
2023/01/29 07:44:19;;;;;;;;;;;;;;;;;;4978863;28;20000;-26
2023/01/29 07:46:45;;;;;;;;;;;;;;;;;;4978851;28;19918;-25
2023/01/29 07:49:11;;;;;;;;;;;;;;;;;;4978987;28;19929;-25
2023/01/29 07:51:37;;;;;;;;;;;;;;;;;;4978736;28;20368;-29
2023/01/29 07:54:03;;;;;;;;;;;;;;;;;;4978636;28;19921;-26
2023/01/29 07:56:29;;;;;;;;;;;;;;;;;;4978639;28;19910;-23
2023/01/29 07:58:55;;;;;;;;;;;;;;;;;;4978842;28;19918;-27
2023/01/29 08:01:21;;;;;;;;;;;;;;;;;;4978543;28;20397;-29
2023/01/29 08:03:47;;;;;;;;;;;;;;;;;;4978364;28;20368;-22
2023/01/29 08:06:13;;;;;;;;;;;;;;;;;;4978443;28;19925;-26
2023/01/29 08:08:39;;;;;;;;;;;;;;;;;;4978321;28;19925;-28
2023/01/29 08:11:05;;;;;;;;;;;;;;;;;;4978310;28;19914;-24
2023/01/29 08:13:31;;;;;;;;;;;;;;;;;;4978579;28;19921;-27
2023/01/29 08:15:57;;;;;;;;;;;;;;;;;;4978318;28;19914;-24
2023/01/29 08:18:23;;;;;;;;;;;;;;;;;;4978231;28;19910;-27
2023/01/29 08:20:49;;;;;;;;;;;;;;;;;;4978197;28;19937;-24
2023/01/29 08:23:15;;;;;;;;;;;;;;;;;;4978368;28;19929;-27
2023/01/29 08:25:41;;;;;;;;;;;;;;;;;;4978037;28;19914;-22
2023/01/29 08:28:07;;;;;;;;;;;;;;;;;;4977941;28;20000;-24
2023/01/29 08:30:33;;;;;;;;;;;;;;;;;;4978777;28;19973;-28
2023/01/29 08:32:59;;;;;;;;;;;;;;;;;;4977546;28;19917;-29
2023/01/29 08:35:25;;;;;;;;;;;;;;;;;;4978142;28;19918;-26
2023/01/29 08:37:51;;;;;;;;;;;;;;;;;;4977917;28;19933;-26
2023/01/29 08:40:17;;;;;;;;;;;;;;;;;;4978874;28;19914;-23
2023/01/29 08:42:43;;;;;;;;;;;;;;;;;;4977640;28;19914;-29
2023/01/29 08:45:09;;;;;;;;;;;;;;;;;;4977796;28;19914;-23
2023/01/29 08:47:35;;;;;;;;;;;;;;;;;;4977698;28;20281;-27
2023/01/29 08:50:01;;;;;;;;;;;;;;;;;;4977913;28;20235;-25
2023/01/29 08:52:27;;;;;;;;;;;;;;;;;;4976531;28;19925;-26
2023/01/29 08:54:53;;;;;;;;;;;;;;;;;;4977595;28;19933;-26
2023/01/29 08:57:19;;;;;;;;;;;;;;;;;;4977501;28;19921;-28
2023/01/29 08:59:45;;;;;;;;;;;;;;;;;;4977525;28;19914;-32
2023/01/29 09:02:11;;;;;;;;;;;;;;;;;;4977620;28;20362;-29
2023/01/29 09:04:37;;;;;;;;;;;;;;;;;;4977028;28;19932;-23
2023/01/29 09:07:03;;;;;;;;;;;;;;;;;;4977386;28;19988;-26
2023/01/29 09:09:29;;;;;;;;;;;;;;;;;;4977219;28;19918;-26
2023/01/29 09:11:55;;;;;;;;;;;;;;;;;;4977441;28;19914;-22
2023/01/29 09:14:21;;;;;;;;;;;;;;;;;;4976243;28;20257;-24
2023/01/29 09:16:47;;;;;;;;;;;;;;;;;;4977350;28;19914;-28
2023/01/29 09:19:13;;;;;;;;;;;;;;;;;;4977065;28;20009;-26
2023/01/29 09:21:39;;;;;;;;;;;;;;;;;;4976944;28;19914;-26
2023/01/29 09:24:05;;;;;;;;;;;;;;;;;;4977040;28;20253;-24
2023/01/29 09:26:31;;;;;;;;;;;;;;;;;;4976899;28;20365;-26
2023/01/29 09:28:57;;;;;;;;;;;;;;;;;;4977127;28;19914;-31
2023/01/29 09:31:23;;;;;;;;;;;;;;;;;;4976876;28;20360;-27
2023/01/29 09:33:48;;;;;;;;;;;;;;;;;;4977092;28;19956;-24
2023/01/29 09:36:14;;;;;;;;;;;;;;;;;;4976819;28;19918;-24
2023/01/29 09:38:40;;;;;;;;;;;;;;;;;;4976705;28;19910;-30
2023/01/29 09:41:06;;;;;;;;;;;;;;;;;;4976698;28;19958;-24
2023/01/29 09:43:32;;;;;;;;;;;;;;;;;;4976516;28;19910;-26
2023/01/29 09:45:58;;;;;;;;;;;;;;;;;;4975807;28;20349;-28
2023/01/29 09:48:24;;;;;;;;;;;;;;;;;;4976733;28;19922;-25
2023/01/29 09:50:51;;;;;;;;;;;;;;;;;;4976572;28;20294;-26
2023/01/29 09:53:17;;;;;;;;;;;;;;;;;;4976540;28;20021;-23
2023/01/29 09:55:43;;;;;;;;;;;;;;;;;;4976504;28;19957;-27
2023/01/29 09:58:09;;;;;;;;;;;;;;;;;;4976436;28;19914;-24
2023/01/29 10:00:35;;;;;;;;;;;;;;;;;;4976400;28;19918;-25
2023/01/29 10:03:00;;;;;;;;;;;;;;;;;;4975364;28;19914;-24
2023/01/29 10:05:26;;;;;;;;;;;;;;;;;;4976148;28;19949;-25
2023/01/29 10:07:54;;;;;;;;;;;;;;;;;;4976325;28;19918;-23
2023/01/29 10:10:20;;;;;;;;;;;;;;;;;;4976428;28;19932;-30
2023/01/29 10:12:46;;;;;;;;;;;;;;;;;;4976106;28;20338;-26
2023/01/29 10:15:12;;;;;;;;;;;;;;;;;;4975207;28;19910;-23
2023/01/29 10:17:38;;;;;;;;;;;;;;;;;;4976163;28;19921;-26
2023/01/29 10:20:04;;;;;;;;;;;;;;;;;;4976092;28;19917;-23
2023/01/29 10:22:30;;;;;;;;;;;;;;;;;;4976316;28;19910;-27
2023/01/29 10:24:56;;;;;;;;;;;;;;;;;;4976053;28;19965;-28
2023/01/29 10:27:22;;;;;;;;;;;;;;;;;;4976362;28;19914;-26
2023/01/29 10:29:48;;;;;;;;;;;;;;;;;;4975863;28;20290;-25
2023/01/29 10:32:14;;;;;;;;;;;;;;;;;;4975915;28;20073;-27
2023/01/29 10:34:40;;;;;;;;;;;;;;;;;;4975053;28;19973;-25
2023/01/29 10:37:06;;;;;;;;;;;;;;;;;;4975991;28;19914;-28
2023/01/29 10:39:32;;;;;;;;;;;;;;;;;;4975841;28;19925;-25
2023/01/29 10:41:58;;;;;;;;;;;;;;;;;;4976070;28;19922;-22
2023/01/29 10:44:24;;;;;;;;;;;;;;;;;;4975976;28;20317;-22
2023/01/29 10:46:50;;;;;;;;;;;;;;;;;;4975903;28;19977;-26
2023/01/29 10:49:16;;;;;;;;;;;;;;;;;;4976063;28;19925;-25
2023/01/29 10:51:42;;;;;;;;;;;;;;;;;;4975762;28;19922;-26
2023/01/29 10:54:08;;;;;;;;;;;;;;;;;;4975675;28;19917;-25
2023/01/29 10:56:34;;;;;;;;;;;;;;;;;;4977685;28;19924;-27
2023/01/29 10:59:00;;;;;;;;;;;;;;;;;;4979662;28;19933;-22
2023/01/29 11:01:26;;;;;;;;;;;;;;;;;;4979675;28;19921;-26
2023/01/29 11:03:52;;;;;;;;;;;;;;;;;;4979377;28;19918;-26
2023/01/29 11:06:18;;;;;;;;;;;;;;;;;;4979530;28;19915;-26
2023/01/29 11:08:44;;;;;;;;;;;;;;;;;;4979710;28;19976;-25
2023/01/29 11:11:10;;;;;;;;;;;;;;;;;;4979464;28;20009;-26
2023/01/29 11:13:36;;;;;;;;;;;;;;;;;;4979295;28;19914;-23
2023/01/29 11:16:02;;;;;;;;;;;;;;;;;;4979638;28;19914;-27
2023/01/29 11:18:27;;;;;;;;;;;;;;;;;;4979384;28;19917;-29
2023/01/29 11:20:54;;;;;;;;;;;;;;;;;;4979616;28;19915;-28
2023/01/29 11:23:20;;;;;;;;;;;;;;;;;;4979205;28;19953;-24
2023/01/29 11:25:46;;;;;;;;;;;;;;;;;;4979457;28;19914;-29
2023/01/29 11:28:11;;;;;;;;;;;;;;;;;;4979145;28;19964;-26
2023/01/29 11:30:38;;;;;;;;;;;;;;;;;;4979123;28;19914;-24
2023/01/29 11:33:03;;;;;;;;;;;;;;;;;;4979026;28;19914;-23
2023/01/29 11:35:32;;;;;;;;;;;;;;;;;;4979333;28;19921;-23
2023/01/29 11:37:58;;;;;;;;;;;;;;;;;;4979328;28;20404;-28
2023/01/29 11:40:24;;;;;;;;;;;;;;;;;;4979620;28;20005;-22
2023/01/29 11:42:52;;;;;;;;;;;;;;;;;;4978867;28;19968;-26
2023/01/29 11:45:18;;;;;;;;;;;;;;;;;;4979136;28;19925;-29
2023/01/29 11:47:44;;;;;;;;;;;;;;;;;;4978774;28;20273;-23
2023/01/29 11:50:10;;;;;;;;;;;;;;;;;;4978896;28;20325;-24
2023/01/29 11:52:36;;;;;;;;;;;;;;;;;;4978844;28;19923;-29
2023/01/29 11:55:02;;;;;;;;;;;;;;;;;;4978668;28;20358;-26
2023/01/29 11:57:28;;;;;;;;;;;;;;;;;;4978630;28;19949;-26
2023/01/29 11:59:54;;;;;;;;;;;;;;;;;;4978613;28;19980;-23
2023/01/29 12:02:20;;;;;;;;;;;;;;;;;;4978491;28;19944;-26
2023/01/29 12:04:46;;;;;;;;;;;;;;;;;;4978529;28;19922;-25
2023/01/29 12:07:12;;;;;;;;;;;;;;;;;;4977642;28;19922;-27
2023/01/29 12:09:38;;;;;;;;;;;;;;;;;;4978028;28;19914;-28
2023/01/29 12:12:04;;;;;;;;;;;;;;;;;;4978321;28;19922;-26
2023/01/29 12:14:32;;;;;;;;;;;;;;;;;;4978596;28;19925;-25
2023/01/29 12:16:58;;;;;;;;;;;;;;;;;;4978515;28;19937;-26
2023/01/29 12:19:24;;;;;;;;;;;;;;;;;;4978572;28;19910;-28
2023/01/29 12:21:50;;;;;;;;;;;;;;;;;;4978101;28;19988;-23
2023/01/29 12:24:16;;;;;;;;;;;;;;;;;;4978416;28;19925;-24
2023/01/29 12:26:42;;;;;;;;;;;;;;;;;;4978368;28;20342;-23
2023/01/29 12:29:08;;;;;;;;;;;;;;;;;;4977991;28;19925;-26
2023/01/29 12:31:34;;;;;;;;;;;;;;;;;;4978002;28;20266;-26
2023/01/29 12:34:00;;;;;;;;;;;;;;;;;;4977943;28;19918;-26
2023/01/29 12:36:26;;;;;;;;;;;;;;;;;;4977928;28;19914;-26
2023/01/29 12:38:52;;;;;;;;;;;;;;;;;;4978202;28;19920;-28
2023/01/29 12:41:20;;;;;;;;;;;;;;;;;;4977838;28;19998;-28
2023/01/29 12:43:46;;;;;;;;;;;;;;;;;;4977668;28;19949;-23
2023/01/29 12:46:12;;;;;;;;;;;;;;;;;;4978323;28;19915;-25
2023/01/29 12:48:38;;;;;;;;;;;;;;;;;;4977595;28;20366;-27
2023/01/29 12:51:04;;;;;;;;;;;;;;;;;;4977941;28;19981;-26
2023/01/29 12:53:30;;;;;;;;;;;;;;;;;;4977566;28;20330;-26
2023/01/29 12:55:56;;;;;;;;;;;;;;;;;;4977790;28;19918;-25
2023/01/29 12:58:22;;;;;;;;;;;;;;;;;;4977546;28;19911;-26
2023/01/29 13:00:48;;;;;;;;;;;;;;;;;;4977482;28;19914;-23
2023/01/29 13:03:17;;;;;;;;;;;;;;;;;;4977403;28;19921;-29
2023/01/29 13:05:43;;;;;;;;;;;;;;;;;;4977673;28;20363;-29
2023/01/29 13:08:09;;;;;;;;;;;;;;;;;;4977256;28;19914;-25
2023/01/29 13:10:35;;;;;;;;;;;;;;;;;;4977267;28;19977;-29
2023/01/29 13:13:01;;;;;;;;;;;;;;;;;;4977318;28;19914;-28
2023/01/29 13:15:27;;;;;;;;;;;;;;;;;;4977257;28;19914;-26
2023/01/29 13:17:53;;;;;;;;;;;;;;;;;;4977439;28;19925;-25
2023/01/29 13:20:19;;;;;;;;;;;;;;;;;;4976940;28;19914;-30
2023/01/29 13:22:45;;;;;;;;;;;;;;;;;;4976969;28;20018;-25
2023/01/29 13:25:11;;;;;;;;;;;;;;;;;;4977292;28;19926;-24
2023/01/29 13:27:37;;;;;;;;;;;;;;;;;;4976986;28;19941;-26
2023/01/29 13:30:03;;;;;;;;;;;;;;;;;;4977371;28;19925;-26
2023/01/29 13:32:29;;;;;;;;;;;;;;;;;;4976876;28;19910;-27
2023/01/29 13:34:55;;;;;;;;;;;;;;;;;;4975868;28;19986;-29
2023/01/29 13:37:21;;;;;;;;;;;;;;;;;;4977089;28;19922;-27
2023/01/29 13:39:47;;;;;;;;;;;;;;;;;;4977030;28;19973;-25
2023/01/29 13:42:13;;;;;;;;;;;;;;;;;;4976612;28;20098;-26
2023/01/29 13:44:39;;;;;;;;;;;;;;;;;;4976687;28;19953;-24
2023/01/29 13:47:05;;;;;;;;;;;;;;;;;;4976903;28;19989;-29
2023/01/29 13:49:31;;;;;;;;;;;;;;;;;;4976559;28;20330;-29
2023/01/29 13:51:57;;;;;;;;;;;;;;;;;;4976725;28;19917;-22
2023/01/29 13:54:23;;;;;;;;;;;;;;;;;;4976492;28;20386;-29
2023/01/29 13:56:50;;;;;;;;;;;;;;;;;;4975514;28;19917;-29
2023/01/29 13:59:16;;;;;;;;;;;;;;;;;;4976740;28;19968;-29
2023/01/29 14:01:42;;;;;;;;;;;;;;;;;;4976391;28;19918;-26
2023/01/29 14:04:08;;;;;;;;;;;;;;;;;;4976447;28;20400;-33
2023/01/29 14:06:34;;;;;;;;;;;;;;;;;;4976587;28;19937;-29
2023/01/29 14:09:00;;;;;;;;;;;;;;;;;;4976484;28;19925;-30
2023/01/29 14:11:26;;;;;;;;;;;;;;;;;;4976237;28;19914;-23
2023/01/29 14:13:52;;;;;;;;;;;;;;;;;;4976108;28;19921;-27
2023/01/29 14:16:18;;;;;;;;;;;;;;;;;;4976168;28;19976;-27
2023/01/29 14:18:44;;;;;;;;;;;;;;;;;;4975179;28;19969;-29
2023/01/29 14:21:10;;;;;;;;;;;;;;;;;;4976348;28;19918;-28
2023/01/29 14:23:39;;;;;;;;;;;;;;;;;;4976028;28;20025;-24
2023/01/29 14:26:05;;;;;;;;;;;;;;;;;;4976323;28;20043;-26
2023/01/29 14:28:31;;;;;;;;;;;;;;;;;;4976268;28;19918;-26
2023/01/29 14:30:57;;;;;;;;;;;;;;;;;;4975708;28;20214;-26
2023/01/29 14:33:23;;;;;;;;;;;;;;;;;;4976220;28;20000;-25
2023/01/29 14:35:48;;;;;;;;;;;;;;;;;;4975944;28;19958;-26
2023/01/29 14:38:15;;;;;;;;;;;;;;;;;;4975910;28;19911;-26
2023/01/29 14:40:41;;;;;;;;;;;;;;;;;;4975935;28;19914;-26
2023/01/29 14:43:07;;;;;;;;;;;;;;;;;;4976079;28;20009;-25
2023/01/29 14:45:33;;;;;;;;;;;;;;;;;;4975899;28;20301;-29
2023/01/29 14:47:59;;;;;;;;;;;;;;;;;;4975863;28;19941;-26
2023/01/29 14:50:25;;;;;;;;;;;;;;;;;;4976079;28;19933;-23
2023/01/29 14:52:52;;;;;;;;;;;;;;;;;;4975963;28;19914;-27
2023/01/29 14:55:18;;;;;;;;;;;;;;;;;;4975789;28;19920;-22
2023/01/29 14:57:44;;;;;;;;;;;;;;;;;;4976193;28;20001;-24
2023/01/29 15:00:10;;;;;;;;;;;;;;;;;;4975727;28;20019;-27
2023/01/29 15:02:36;;;;;;;;;;;;;;;;;;4975658;28;19972;-27
2023/01/29 15:05:03;;;;;;;;;;;;;;;;;;4975582;28;20314;-26
2023/01/29 15:07:29;;;;;;;;;;;;;;;;;;4975962;28;19951;-29
2023/01/29 15:09:55;;;;;;;;;;;;;;;;;;4975620;28;19918;-26
2023/01/29 15:12:21;;;;;;;;;;;;;;;;;;4975664;28;20030;-24
2023/01/29 15:14:47;;;;;;;;;;;;;;;;;;4975597;28;19922;-27
2023/01/29 15:17:17;;;;;;;;;;;;;;;;;;4975835;28;19910;-26
2023/01/29 15:19:49;;;;;;;;;;;;;;;;;;4975576;28;19921;-24
2023/01/29 15:22:15;;;;;;;;;;;;;;;;;;4975788;28;20001;-24
2023/01/29 15:24:41;;;;;;;;;;;;;;;;;;4975758;28;19966;-24
2023/01/29 15:27:07;;;;;;;;;;;;;;;;;;4976469;28;19910;-27
2023/01/29 15:29:33;;;;;;;;;;;;;;;;;;4975414;28;19965;-25
2023/01/29 15:31:59;;;;;;;;;;;;;;;;;;4976034;28;19949;-25
2023/01/29 15:34:25;;;;;;;;;;;;;;;;;;4975742;28;19914;-24
2023/01/29 15:36:51;;;;;;;;;;;;;;;;;;4975646;28;20075;-24
2023/01/29 15:39:21;;;;;;;;;;;;;;;;;;4975389;28;19910;-29
2023/01/29 15:41:47;;;;;;;;;;;;;;;;;;4976230;28;19914;-24
2023/01/29 15:44:15;;;;;;;;;;;;;;;;;;4979209;28;19972;-27
2023/01/29 15:46:41;;;;;;;;;;;;;;;;;;4979095;28;20418;-25
2023/01/29 15:49:07;;;;;;;;;;;;;;;;;;4978736;28;20005;-26
2023/01/29 15:51:33;;;;;;;;;;;;;;;;;;4977840;28;20358;-29
2023/01/29 15:53:59;;;;;;;;;;;;;;;;;;4978630;28;19921;-23
2023/01/29 15:56:26;;;;;;;;;;;;;;;;;;4978675;28;19972;-25
2023/01/29 15:58:53;;;;;;;;;;;;;;;;;;4978550;28;19910;-22
2023/01/29 16:01:19;;;;;;;;;;;;;;;;;;4977638;28;20057;-27
2023/01/29 16:03:45;;;;;;;;;;;;;;;;;;4978238;28;20001;-25
2023/01/29 16:06:11;;;;;;;;;;;;;;;;;;4978818;28;19932;-27
2023/01/29 16:08:36;;;;;;;;;;;;;;;;;;4978370;28;19925;-25
2023/01/29 16:11:02;;;;;;;;;;;;;;;;;;4978453;28;20267;-25
2023/01/29 16:13:28;;;;;;;;;;;;;;;;;;4978562;28;19942;-29
2023/01/29 16:15:54;;;;;;;;;;;;;;;;;;4978600;28;20000;-28
2023/01/29 16:18:21;;;;;;;;;;;;;;;;;;4978486;28;19914;-25
2023/01/29 16:20:47;;;;;;;;;;;;;;;;;;4978450;28;19972;-27
2023/01/29 16:23:12;;;;;;;;;;;;;;;;;;4978128;28;19914;-24
2023/01/29 16:25:39;;;;;;;;;;;;;;;;;;4978165;28;19997;-27
2023/01/29 16:28:05;;;;;;;;;;;;;;;;;;4978176;28;20021;-29
2023/01/29 16:30:31;;;;;;;;;;;;;;;;;;4978021;28;20357;-26
2023/01/29 16:32:56;;;;;;;;;;;;;;;;;;4977959;28;19922;-25
2023/01/29 16:35:22;;;;;;;;;;;;;;;;;;4978035;28;19910;-29
2023/01/29 16:37:48;;;;;;;;;;;;;;;;;;4976913;28;19925;-29
2023/01/29 16:40:14;;;;;;;;;;;;;;;;;;4977901;28;20270;-29
2023/01/29 16:42:40;;;;;;;;;;;;;;;;;;4977764;28;20066;-26
2023/01/29 16:45:06;;;;;;;;;;;;;;;;;;4977676;28;19914;-27
2023/01/29 16:47:32;;;;;;;;;;;;;;;;;;4977792;28;19917;-22
2023/01/29 16:49:59;;;;;;;;;;;;;;;;;;4977572;28;19919;-29
2023/01/29 16:52:25;;;;;;;;;;;;;;;;;;4977856;28;19918;-24
2023/01/29 16:54:51;;;;;;;;;;;;;;;;;;4977079;28;20353;-25
2023/01/29 16:57:17;;;;;;;;;;;;;;;;;;4977853;28;20249;-27
2023/01/29 16:59:43;;;;;;;;;;;;;;;;;;4977512;28;20001;-23
2023/01/29 17:02:09;;;;;;;;;;;;;;;;;;4977387;28;19965;-26
2023/01/29 17:04:35;;;;;;;;;;;;;;;;;;4977287;28;19980;-23
2023/01/29 17:07:01;;;;;;;;;;;;;;;;;;4977401;28;19910;-26